SLLP/LPB METAR and TAF weather

Enter ICAO airport designator
Station Type Date Time Source
SLLP METAR 2019/10/21 02:00 UTC NOAA

SLLP 210200Z 34004KT 290V040 9999 FEW013 SCT200 08/03 Q1038


Station Type Date Time Source
SLLP Decoded METAR 2019/10/21 02:00 UTC NOAA

La Paz / Alto, Bolivia (SLLP) 16-31S 068-11W 4038M
Oct 20, 2019 - 10:00 PM EDT / 2019.10.21 0200 UTC
Wind: from the NNW (340 degrees) at 5 MPH (4 KT) (direction variable):0
Visibility: greater than 7 mile(s):0
Sky conditions: partly cloudy
Temperature: 46 F (8 C)
Dew Point: 37 F (3 C)
Relative Humidity: 70%
Pressure (altimeter): 30.65 in. Hg (1038 hPa)
ob: SLLP 210200Z 34004KT 290V040 9999 FEW013 SCT200 08/03 Q1038
cycle: 2

Station Type Date Time Source
SLLP TAF 2019/10/20 18:12 UTC NOAA

TAF SLLP 201600Z 2018/2118 25008KT 9999 SCT017 FEW020CB TX15/2020Z TN02/2110Z
TEMPO 2018/2022 8000 VCSH
BECMG 2102/2104 3000E VCFG FEW002 SCT012
BECMG 2112/2114 13008KT 9999 NSW FEW015

Example: see airport list